Estación de El Palqui INIA

Ultimos registro cada 15 minutos 31
Estación Fecha / Hora Temperatura Humedad Lluvia Velocidad Dirección Radiación Presion
31 El Palqui INIA 05-05-2026 07:30 10,6 60,9 0 0,1 87 4 0
30 El Palqui INIA 05-05-2026 07:15 10 60,2 0 0,4 124 1 0
29 El Palqui INIA 05-05-2026 07:00 9,3 63,8 0 1,2 51 0 0
28 El Palqui INIA 05-05-2026 06:45 10 63 0 1 76 0 0
27 El Palqui INIA 05-05-2026 06:30 10,4 63,7 0 0,5 87 0 0
26 El Palqui INIA 05-05-2026 06:15 10 61,9 0 0,6 72 0 0
25 El Palqui INIA 05-05-2026 06:00 10 63 0 0,5 53 0 0
24 El Palqui INIA 05-05-2026 05:45 10,1 61,2 0 0,8 68 0 0
23 El Palqui INIA 05-05-2026 05:30 9,9 63,3 0 1,1 63 0 0
22 El Palqui INIA 05-05-2026 05:15 10,2 64,1 0 0,5 62 0 0
21 El Palqui INIA 05-05-2026 05:00 10,7 62 0 0,4 90 0 0
20 El Palqui INIA 05-05-2026 04:45 9,5 65,5 0 1,2 70 0 0
19 El Palqui INIA 05-05-2026 04:30 11,8 66 0 0,6 100 0 0
18 El Palqui INIA 05-05-2026 04:15 11,6 57,3 0 0,4 89 0 0
17 El Palqui INIA 05-05-2026 04:00 11 59 0 0,8 81 0 0
16 El Palqui INIA 05-05-2026 03:45 10,6 63,2 0 1,4 71 0 0
15 El Palqui INIA 05-05-2026 03:30 12,4 61,6 0 0,6 91 0 0
14 El Palqui INIA 05-05-2026 03:15 12,4 62,3 0 0,8 97 0 0
13 El Palqui INIA 05-05-2026 03:00 13 57,3 0 0,3 114 0 0
12 El Palqui INIA 05-05-2026 02:45 12,4 57,1 0 0,4 96 0 0
11 El Palqui INIA 05-05-2026 02:30 11,8 59,2 0 0,5 74 0 0
10 El Palqui INIA 05-05-2026 02:15 11 59,4 0 1 69 0 0
9 El Palqui INIA 05-05-2026 02:00 12,1 62,5 0 0,9 93 0 0
8 El Palqui INIA 05-05-2026 01:45 13 58,3 0 0,3 84 0 0
7 El Palqui INIA 05-05-2026 01:30 12,4 60,4 0 0,5 78 0 0
6 El Palqui INIA 05-05-2026 01:15 12,4 61,8 0 0,8 77 0 0
5 El Palqui INIA 05-05-2026 01:00 12,7 61 0 0,6 75 0 0
4 El Palqui INIA 05-05-2026 00:45 11,9 59 0 1 81 0 0
3 El Palqui INIA 05-05-2026 00:30 12,4 59,7 0 1,1 78 0 0
2 El Palqui INIA 05-05-2026 00:15 14,1 52,7 0 0,3 82 0 0
1 El Palqui INIA 05-05-2026 00:00 12,6 49,8 0 1 68 0 0